Time;durP1;ratioP1;P1;durP2;ratioP2;P2;SDS_P1;SDS_P2;PMS_P1;PMS_P2;Temp;Humidity;BMP_temperature;BMP_pressure;BME280_temperature;BME280_humidity;BME280_pressure;Samples;Min_cycle;Max_cycle;Signal;HPM_P1;HPM_P2
2024/01/10 00:01:00;;;;;;;13.85;12.55;;;;;;;;;;6131999;28;20039;-94
2024/01/10 00:04:02;;;;;;;16.27;15.20;;;;;;;;;;6139263;28;20043;-94
2024/01/10 00:07:05;;;;;;;13.98;13.27;;;;;;;;;;6140394;28;20386;-94
2024/01/10 00:10:06;;;;;;;13.98;12.98;;;;;;;;;;6137560;28;20051;-94
2024/01/10 00:13:08;;;;;;;14.57;13.60;;;;;;;;;;6138943;28;20525;-94
2024/01/10 00:16:16;;;;;;;10.80;9.93;;;;;;;;;;6139908;28;20042;-94
2024/01/10 00:19:18;;;;;;;9.68;9.05;;;;;;;;;;6130022;28;20103;-95
2024/01/10 00:22:20;;;;;;;11.20;10.50;;;;;;;;;;6130163;28;20488;-95
2024/01/10 00:25:21;;;;;;;11.82;10.65;;;;;;;;;;6139909;28;20051;-94
2024/01/10 00:28:24;;;;;;;10.38;9.98;;;;;;;;;;6149880;28;20035;-94
2024/01/10 00:31:26;;;;;;;12.68;11.82;;;;;;;;;;6145040;28;20047;-94
2024/01/10 00:34:27;;;;;;;9.77;9.07;;;;;;;;;;6136332;28;20051;-95
2024/01/10 00:37:29;;;;;;;10.02;9.32;;;;;;;;;;6136825;28;20055;-95
2024/01/10 00:40:31;;;;;;;11.65;10.68;;;;;;;;;;6140198;28;20054;-94
2024/01/10 00:43:33;;;;;;;10.48;9.52;;;;;;;;;;6139936;28;20510;-94
2024/01/10 00:46:35;;;;;;;8.70;8.30;;;;;;;;;;6140982;28;20490;-95
2024/01/10 00:49:37;;;;;;;9.15;8.43;;;;;;;;;;6140021;28;20079;-94
2024/01/10 00:52:39;;;;;;;9.13;8.48;;;;;;;;;;6144797;28;20074;-94
2024/01/10 00:55:40;;;;;;;9.85;9.35;;;;;;;;;;6135950;28;20039;-94
2024/01/10 00:58:42;;;;;;;14.63;8.70;;;;;;;;;;6143882;28;20130;-95
2024/01/10 01:01:44;;;;;;;11.18;10.40;;;;;;;;;;6141210;28;20054;-94
2024/01/10 01:04:46;;;;;;;10.73;10.13;;;;;;;;;;6138386;28;20066;-95
2024/01/10 01:07:48;;;;;;;10.13;9.45;;;;;;;;;;6142283;28;20237;-93
2024/01/10 01:10:50;;;;;;;11.02;10.32;;;;;;;;;;6146310;28;20138;-94
2024/01/10 01:13:52;;;;;;;8.85;8.15;;;;;;;;;;6152642;28;20066;-94
2024/01/10 01:16:54;;;;;;;10.77;9.93;;;;;;;;;;6138250;28;20055;-94
2024/01/10 01:19:56;;;;;;;9.50;8.75;;;;;;;;;;6138786;28;20039;-94
2024/01/10 01:22:58;;;;;;;9.82;9.02;;;;;;;;;;6141619;29;20066;-93
2024/01/10 01:26:00;;;;;;;10.13;9.40;;;;;;;;;;6142546;28;20833;-94
2024/01/10 01:29:02;;;;;;;9.13;8.73;;;;;;;;;;6140999;28;20150;-94
2024/01/10 01:32:04;;;;;;;9.50;8.95;;;;;;;;;;6143378;28;20159;-94
2024/01/10 01:35:06;;;;;;;10.38;9.77;;;;;;;;;;6142202;28;20055;-94
2024/01/10 01:38:08;;;;;;;9.52;9.02;;;;;;;;;;6135182;28;20993;-95
2024/01/10 01:41:10;;;;;;;9.13;8.52;;;;;;;;;;6141190;28;20080;-94
2024/01/10 01:44:12;;;;;;;10.20;9.40;;;;;;;;;;6143096;28;20166;-94
2024/01/10 01:47:14;;;;;;;9.93;9.43;;;;;;;;;;6142249;28;20091;-94
2024/01/10 01:50:16;;;;;;;9.75;9.15;;;;;;;;;;6133159;29;20794;-94
2024/01/10 01:53:19;;;;;;;10.52;9.90;;;;;;;;;;6137060;28;20051;-95
2024/01/10 01:56:21;;;;;;;10.05;9.05;;;;;;;;;;6149211;28;20126;-94
2024/01/10 01:59:24;;;;;;;12.60;11.50;;;;;;;;;;6142647;28;20166;-94
2024/01/10 02:02:27;;;;;;;10.20;9.50;;;;;;;;;;6136763;28;20054;-95
2024/01/10 02:05:29;;;;;;;9.90;9.20;;;;;;;;;;6133738;28;20066;-94
2024/01/10 02:08:37;;;;;;;11.82;10.88;;;;;;;;;;6140458;28;20497;-94
2024/01/10 02:11:39;;;;;;;11.15;10.38;;;;;;;;;;6136696;28;20047;-94
2024/01/10 02:14:41;;;;;;;10.45;9.48;;;;;;;;;;6134174;29;20046;-94
2024/01/10 02:17:43;;;;;;;11.60;10.68;;;;;;;;;;6137731;28;20062;-94
2024/01/10 02:20:46;;;;;;;10.18;9.45;;;;;;;;;;6134410;28;20055;-94
2024/01/10 02:23:48;;;;;;;9.60;9.00;;;;;;;;;;6142072;29;20055;-95
2024/01/10 02:26:50;;;;;;;16.33;15.07;;;;;;;;;;6137899;28;20043;-94
2024/01/10 02:29:53;;;;;;;10.60;10.02;;;;;;;;;;6141487;28;20087;-94
2024/01/10 02:32:54;;;;;;;10.10;9.18;;;;;;;;;;6140146;28;20414;-94
2024/01/10 02:35:56;;;;;;;10.90;10.30;;;;;;;;;;6140294;28;20066;-94
2024/01/10 02:38:58;;;;;;;12.52;10.43;;;;;;;;;;6152406;28;20145;-94
2024/01/10 02:42:00;;;;;;;10.27;9.77;;;;;;;;;;6135802;29;20050;-95
2024/01/10 02:45:03;;;;;;;12.25;11.00;;;;;;;;;;6139064;28;20047;-95
2024/01/10 02:48:05;;;;;;;10.25;9.55;;;;;;;;;;6133208;28;20055;-95
2024/01/10 02:51:06;;;;;;;12.07;10.98;;;;;;;;;;6133128;28;20043;-95
2024/01/10 02:54:08;;;;;;;10.98;10.48;;;;;;;;;;6140971;28;20616;-95
2024/01/10 02:57:11;;;;;;;17.70;10.75;;;;;;;;;;6132073;28;20178;-95
2024/01/10 03:00:13;;;;;;;12.57;11.43;;;;;;;;;;6135368;28;20161;-94
2024/01/10 03:03:15;;;;;;;10.50;9.90;;;;;;;;;;6148792;28;20059;-95
2024/01/10 03:06:17;;;;;;;11.20;10.13;;;;;;;;;;6130705;28;20066;-95
2024/01/10 03:09:18;;;;;;;9.65;9.18;;;;;;;;;;6139533;28;20047;-94
2024/01/10 03:12:20;;;;;;;10.18;9.68;;;;;;;;;;6139029;28;20050;-94
2024/01/10 03:15:23;;;;;;;11.20;10.60;;;;;;;;;;6127686;29;20054;-95
2024/01/10 03:18:25;;;;;;;12.48;11.68;;;;;;;;;;6138163;28;20055;-94
2024/01/10 03:21:27;;;;;;;10.63;9.95;;;;;;;;;;6143724;28;20047;-95
2024/01/10 03:24:29;;;;;;;13.95;13.05;;;;;;;;;;6138605;28;20119;-95
2024/01/10 03:27:31;;;;;;;14.73;14.02;;;;;;;;;;6139988;28;20051;-95
2024/01/10 03:30:33;;;;;;;13.43;12.73;;;;;;;;;;6135609;28;20410;-94
2024/01/10 03:33:35;;;;;;;13.27;12.38;;;;;;;;;;6140166;28;20051;-94
2024/01/10 03:36:37;;;;;;;14.63;13.20;;;;;;;;;;6120434;29;20058;-94
2024/01/10 03:39:38;;;;;;;12.20;11.38;;;;;;;;;;6138857;28;20066;-95
2024/01/10 03:42:40;;;;;;;13.50;12.73;;;;;;;;;;6138911;28;20044;-95
2024/01/10 03:45:44;;;;;;;11.25;10.65;;;;;;;;;;6136076;28;20501;-95
2024/01/10 03:48:49;;;;;;;14.18;13.32;;;;;;;;;;6138016;28;20035;-95
2024/01/10 03:51:50;;;;;;;12.02;11.48;;;;;;;;;;6147861;28;20058;-95
2024/01/10 03:54:52;;;;;;;12.85;12.00;;;;;;;;;;6137232;28;20129;-95
2024/01/10 03:57:54;;;;;;;13.30;12.30;;;;;;;;;;6136370;28;20058;-95
2024/01/10 04:00:56;;;;;;;11.63;10.95;;;;;;;;;;6137230;29;20039;-95
2024/01/10 04:03:58;;;;;;;12.23;11.43;;;;;;;;;;6153652;28;20501;-95
2024/01/10 04:07:01;;;;;;;16.27;14.88;;;;;;;;;;6147444;28;20054;-95
2024/01/10 04:10:03;;;;;;;21.73;14.40;;;;;;;;;;6127090;28;20039;-95
2024/01/10 04:13:05;;;;;;;13.55;12.85;;;;;;;;;;6139989;28;20489;-96
2024/01/10 04:16:07;;;;;;;19.10;17.75;;;;;;;;;;6140254;28;20109;-95
2024/01/10 04:19:10;;;;;;;18.92;17.52;;;;;;;;;;6141145;28;20043;-95
2024/01/10 04:22:12;;;;;;;17.30;16.27;;;;;;;;;;6145281;28;20043;-95
2024/01/10 04:25:17;;;;;;;13.55;12.55;;;;;;;;;;6140329;28;20067;-95
2024/01/10 04:28:18;;;;;;;11.82;11.05;;;;;;;;;;6120938;29;20055;-95
2024/01/10 04:31:21;;;;;;;15.18;13.85;;;;;;;;;;6142142;28;20036;-95
2024/01/10 04:34:24;;;;;;;13.52;12.60;;;;;;;;;;6144882;28;20608;-95
2024/01/10 04:37:26;;;;;;;15.00;11.60;;;;;;;;;;6155192;28;20109;-95
2024/01/10 04:40:28;;;;;;;11.43;10.52;;;;;;;;;;6122965;28;20043;-95
2024/01/10 04:43:31;;;;;;;12.05;10.95;;;;;;;;;;6143412;28;20741;-95
2024/01/10 04:46:33;;;;;;;11.98;11.15;;;;;;;;;;6158103;28;20055;-94
2024/01/10 04:49:35;;;;;;;11.63;10.93;;;;;;;;;;6137366;28;20397;-95
2024/01/10 04:52:37;;;;;;;14.77;13.30;;;;;;;;;;6143474;28;20083;-95
2024/01/10 04:55:39;;;;;;;13.88;12.98;;;;;;;;;;6142902;28;20047;-95
2024/01/10 04:58:41;;;;;;;10.95;10.35;;;;;;;;;;6139219;28;20409;-95
2024/01/10 05:01:43;;;;;;;11.35;10.77;;;;;;;;;;6141405;28;20145;-95
2024/01/10 05:04:45;;;;;;;13.35;12.52;;;;;;;;;;6142076;28;20098;-95
2024/01/10 05:07:47;;;;;;;19.48;18.08;;;;;;;;;;6153156;28;20133;-96
2024/01/10 05:10:50;;;;;;;20.63;19.63;;;;;;;;;;6143175;28;20150;-95
2024/01/10 05:13:52;;;;;;;16.35;15.55;;;;;;;;;;6132654;28;20043;-96
2024/01/10 05:16:54;;;;;;;21.05;19.95;;;;;;;;;;6134323;28;20153;-96
2024/01/10 05:19:57;;;;;;;17.65;16.25;;;;;;;;;;6138653;28;20114;-96
2024/01/10 05:23:01;;;;;;;17.48;16.58;;;;;;;;;;6142330;28;20055;-94
2024/01/10 05:26:04;;;;;;;16.95;15.95;;;;;;;;;;6154275;28;20492;-95
2024/01/10 05:29:06;;;;;;;22.88;21.48;;;;;;;;;;6157753;28;20032;-96
2024/01/10 05:32:09;;;;;;;22.70;21.13;;;;;;;;;;6144070;28;20465;-96
2024/01/10 05:35:11;;;;;;;27.17;25.65;;;;;;;;;;6143642;28;20086;-95
2024/01/10 05:38:13;;;;;;;20.23;19.02;;;;;;;;;;6140244;28;20050;-96
2024/01/10 05:41:15;;;;;;;19.15;17.98;;;;;;;;;;6144081;28;20405;-95
2024/01/10 05:44:19;;;;;;;22.73;21.42;;;;;;;;;;6143594;28;20498;-96
2024/01/10 05:47:21;;;;;;;17.52;16.63;;;;;;;;;;6142976;28;20043;-96
2024/01/10 05:50:23;;;;;;;22.52;21.52;;;;;;;;;;6153171;28;20051;-96
2024/01/10 05:53:25;;;;;;;20.52;19.17;;;;;;;;;;6124172;29;20497;-96
2024/01/10 05:56:28;;;;;;;27.17;25.65;;;;;;;;;;6128783;28;20051;-95
2024/01/10 05:59:30;;;;;;;28.23;26.50;;;;;;;;;;6136331;28;20095;-96
2024/01/10 06:02:32;;;;;;;29.80;28.40;;;;;;;;;;6137877;28;20047;-95
2024/01/10 06:05:34;;;;;;;18.48;17.58;;;;;;;;;;6142009;28;20421;-95
2024/01/10 06:08:36;;;;;;;21.30;19.70;;;;;;;;;;6140807;28;20186;-96
2024/01/10 06:11:45;;;;;;;24.50;23.40;;;;;;;;;;6156916;28;20136;-93
2024/01/10 06:14:47;;;;;;;21.25;19.88;;;;;;;;;;6142674;28;20504;-95
2024/01/10 06:17:49;;;;;;;27.25;25.92;;;;;;;;;;6158377;28;20063;-96
2024/01/10 06:20:51;;;;;;;31.85;28.00;;;;;;;;;;6139824;28;20161;-96
2024/01/10 06:23:53;;;;;;;16.92;15.73;;;;;;;;;;6143461;28;20054;-96
2024/01/10 06:26:55;;;;;;;14.90;13.95;;;;;;;;;;6142714;28;20047;-96
2024/01/10 06:29:57;;;;;;;14.85;13.85;;;;;;;;;;6139353;29;20043;-96
2024/01/10 06:32:59;;;;;;;15.25;14.25;;;;;;;;;;6130197;29;20047;-95
2024/01/10 06:36:01;;;;;;;15.98;14.52;;;;;;;;;;6138747;28;20043;-96
2024/01/10 06:39:06;;;;;;;14.70;13.40;;;;;;;;;;6143092;28;20153;-95
2024/01/10 06:42:10;;;;;;;15.30;14.05;;;;;;;;;;6143735;28;20501;-96
2024/01/10 06:45:12;;;;;;;13.48;12.65;;;;;;;;;;6142923;28;20062;-96
2024/01/10 06:48:14;;;;;;;20.08;18.17;;;;;;;;;;6144043;28;20449;-96
2024/01/10 06:51:17;;;;;;;16.95;15.25;;;;;;;;;;6135679;28;20490;-95
2024/01/10 06:54:19;;;;;;;13.93;12.30;;;;;;;;;;6146056;28;20540;-95
2024/01/10 06:57:21;;;;;;;13.70;12.57;;;;;;;;;;6137803;28;20035;-95
2024/01/10 07:00:23;;;;;;;11.77;10.68;;;;;;;;;;6142386;28;20047;-95
2024/01/10 07:03:25;;;;;;;12.95;12.35;;;;;;;;;;6143643;28;20175;-96
2024/01/10 07:06:27;;;;;;;14.38;13.27;;;;;;;;;;6139328;28;20051;-96
2024/01/10 07:09:29;;;;;;;16.55;15.20;;;;;;;;;;6144686;28;20521;-96
2024/01/10 07:12:31;;;;;;;13.68;12.57;;;;;;;;;;6137626;28;20091;-96
2024/01/10 07:15:33;;;;;;;15.07;13.98;;;;;;;;;;6137204;28;20050;-96
2024/01/10 07:18:36;;;;;;;15.18;13.85;;;;;;;;;;6142751;28;20074;-96
2024/01/10 07:21:39;;;;;;;19.13;17.33;;;;;;;;;;6146392;29;20043;-96
2024/01/10 07:24:41;;;;;;;15.38;14.15;;;;;;;;;;6142222;29;20059;-96
2024/01/10 07:27:43;;;;;;;20.38;18.85;;;;;;;;;;6140125;28;20046;-96
2024/01/10 07:30:46;;;;;;;13.52;12.65;;;;;;;;;;6145245;28;20097;-94
2024/01/10 07:33:48;;;;;;;15.93;15.13;;;;;;;;;;6137289;29;20466;-96
2024/01/10 07:36:50;;;;;;;17.23;15.98;;;;;;;;;;6153953;28;20129;-94
2024/01/10 07:39:54;;;;;;;12.85;11.88;;;;;;;;;;6143391;28;20047;-96
2024/01/10 07:42:55;;;;;;;15.85;14.80;;;;;;;;;;6146912;28;20051;-96
2024/01/10 07:45:58;;;;;;;19.65;18.15;;;;;;;;;;6144980;28;20122;-96
2024/01/10 07:49:00;;;;;;;19.02;17.33;;;;;;;;;;6139055;29;20712;-95
2024/01/10 07:52:04;;;;;;;17.67;14.13;;;;;;;;;;6142455;28;20048;-96
2024/01/10 07:55:08;;;;;;;23.10;21.08;;;;;;;;;;6148390;28;20051;-96
2024/01/10 07:58:10;;;;;;;23.75;22.45;;;;;;;;;;6151407;28;20069;-96
2024/01/10 08:01:12;;;;;;;20.67;17.95;;;;;;;;;;6152959;28;20047;-96
2024/01/10 08:04:14;;;;;;;18.23;17.25;;;;;;;;;;6151280;28;20047;-96
2024/01/10 08:07:17;;;;;;;20.33;19.08;;;;;;;;;;6153195;28;20051;-96
2024/01/10 08:10:19;;;;;;;19.05;17.65;;;;;;;;;;6152418;28;20060;-96
2024/01/10 08:13:21;;;;;;;20.90;19.33;;;;;;;;;;6150115;29;20541;-96
2024/01/10 08:16:23;;;;;;;17.15;15.85;;;;;;;;;;6152349;28;20055;-96
2024/01/10 08:19:26;;;;;;;17.50;16.30;;;;;;;;;;6177748;28;20054;-96
2024/01/10 08:22:28;;;;;;;20.13;18.45;;;;;;;;;;6152082;29;20405;-96
2024/01/10 08:25:31;;;;;;;18.50;16.83;;;;;;;;;;6154153;28;20055;-96
2024/01/10 08:28:32;;;;;;;19.65;18.00;;;;;;;;;;6153063;28;20049;-96
2024/01/10 08:31:35;;;;;;;18.20;16.60;;;;;;;;;;6148524;28;20073;-96
2024/01/10 08:34:37;;;;;;;15.77;12.77;;;;;;;;;;6151275;29;20042;-96
2024/01/10 08:37:42;;;;;;;14.13;12.65;;;;;;;;;;6153520;28;20471;-96
2024/01/10 08:40:44;;;;;;;16.45;14.48;;;;;;;;;;6154011;28;20087;-96
2024/01/10 08:43:46;;;;;;;13.40;12.30;;;;;;;;;;6146057;29;20051;-96
2024/01/10 08:46:50;;;;;;;17.50;12.68;;;;;;;;;;6144637;28;20043;-96
2024/01/10 08:49:52;;;;;;;23.27;13.38;;;;;;;;;;6153292;28;20054;-96
2024/01/10 08:52:55;;;;;;;15.90;12.45;;;;;;;;;;6146247;29;20043;-96
2024/01/10 08:55:57;;;;;;;14.80;13.15;;;;;;;;;;6153901;28;20078;-96
2024/01/10 08:58:59;;;;;;;12.32;11.45;;;;;;;;;;6155185;28;20122;-96
2024/01/10 09:02:07;;;;;;;15.27;13.82;;;;;;;;;;6167876;28;20138;-96
2024/01/10 09:05:09;;;;;;;17.05;14.27;;;;;;;;;;6153861;28;20049;-96
2024/01/10 09:08:13;;;;;;;14.27;13.10;;;;;;;;;;6143429;28;20039;-96
2024/01/10 09:11:15;;;;;;;14.02;12.55;;;;;;;;;;6140076;29;20050;-96
2024/01/10 09:14:16;;;;;;;13.98;12.85;;;;;;;;;;6149232;29;20098;-96
2024/01/10 09:17:19;;;;;;;21.77;12.65;;;;;;;;;;6145567;28;20045;-96
2024/01/10 09:20:21;;;;;;;19.35;14.65;;;;;;;;;;6154757;28;20054;-96
2024/01/10 09:23:23;;;;;;;14.63;13.30;;;;;;;;;;6142239;28;20056;-96
2024/01/10 09:26:26;;;;;;;16.88;13.40;;;;;;;;;;6147734;28;20130;-96
2024/01/10 09:29:31;;;;;;;12.45;11.45;;;;;;;;;;6143728;28;20047;-96
2024/01/10 09:32:33;;;;;;;16.77;12.85;;;;;;;;;;6151445;28;20055;-96
2024/01/10 09:35:35;;;;;;;17.98;14.23;;;;;;;;;;6147886;28;20039;-96
2024/01/10 09:38:37;;;;;;;15.70;14.40;;;;;;;;;;6152357;28;20445;-96
2024/01/10 09:41:53;;;;;;;12.18;11.38;;;;;;;;;;6143578;28;20043;-96
2024/01/10 09:44:55;;;;;;;16.00;13.93;;;;;;;;;;6155562;28;20558;-96
2024/01/10 09:47:57;;;;;;;19.65;14.80;;;;;;;;;;6141711;29;20729;-96
2024/01/10 09:50:59;;;;;;;14.88;13.65;;;;;;;;;;6144689;28;20036;-96
2024/01/10 09:54:03;;;;;;;17.02;15.82;;;;;;;;;;6147996;29;20047;-96
2024/01/10 09:57:05;;;;;;;19.15;16.40;;;;;;;;;;6136131;28;20039;-96
2024/01/10 10:00:10;;;;;;;16.20;15.20;;;;;;;;;;6143217;28;20066;-96
2024/01/10 10:03:14;;;;;;;20.67;19.20;;;;;;;;;;6142842;28;20043;-96
2024/01/10 10:06:16;;;;;;;25.13;19.98;;;;;;;;;;6147760;29;20437;-96
2024/01/10 10:09:18;;;;;;;20.15;18.38;;;;;;;;;;6149531;28;20046;-96
2024/01/10 10:12:20;;;;;;;20.30;18.73;;;;;;;;;;6144804;28;20047;-96
2024/01/10 10:15:22;;;;;;;25.30;23.42;;;;;;;;;;6145760;28;20050;-96
2024/01/10 10:18:25;;;;;;;21.52;19.50;;;;;;;;;;6150534;28;20055;-96
2024/01/10 10:21:27;;;;;;;20.33;18.80;;;;;;;;;;6149086;28;20044;-96
2024/01/10 10:24:30;;;;;;;21.13;19.23;;;;;;;;;;6146532;28;20047;-96
2024/01/10 10:27:32;;;;;;;24.58;22.13;;;;;;;;;;6156486;28;20055;-96
2024/01/10 10:30:37;;;;;;;25.88;18.83;;;;;;;;;;6147636;28;20074;-96
2024/01/10 10:33:39;;;;;;;20.23;18.60;;;;;;;;;;6148474;29;20580;-96
2024/01/10 10:36:42;;;;;;;24.38;19.95;;;;;;;;;;6163193;28;20051;-96
2024/01/10 10:39:45;;;;;;;19.40;17.77;;;;;;;;;;6149247;28;20095;-96
2024/01/10 10:42:48;;;;;;;20.83;18.83;;;;;;;;;;6151879;28;20055;-96
2024/01/10 10:45:49;;;;;;;20.23;17.75;;;;;;;;;;6150000;28;20050;-94
2024/01/10 10:48:52;;;;;;;18.67;16.95;;;;;;;;;;6143983;28;20047;-95
2024/01/10 10:51:56;;;;;;;24.45;18.80;;;;;;;;;;6134637;29;20069;-95
2024/01/10 10:54:58;;;;;;;20.35;16.85;;;;;;;;;;6136764;29;20147;-95
2024/01/10 10:58:01;;;;;;;17.58;16.08;;;;;;;;;;6132967;29;20051;-95
2024/01/10 11:01:11;;;;;;;;;;;;;;;;;;6140608;28;20039;-96
2024/01/10 11:04:16;;;;;;;15.32;13.90;;;;;;;;;;6158427;28;20308;-95
2024/01/10 11:07:18;;;;;;;17.05;15.73;;;;;;;;;;6137505;28;20071;-95
2024/01/10 11:10:34;;;;;;;15.25;14.13;;;;;;;;;;6124912;29;20028;-96
2024/01/10 11:13:45;;;;;;;17.67;16.05;;;;;;;;;;6143027;28;20075;-95
2024/01/10 11:16:46;;;;;;;;;;;;;;;;;;6138297;28;20417;-95
2024/01/10 11:19:58;;;;;;;20.33;13.38;;;;;;;;;;6142194;28;19922;-95
2024/01/10 11:23:01;;;;;;;13.75;12.60;;;;;;;;;;6142214;28;20058;-95
2024/01/10 11:26:03;;;;;;;15.18;13.80;;;;;;;;;;6127863;28;20043;-96
2024/01/10 11:29:05;;;;;;;16.08;14.30;;;;;;;;;;6136317;28;20040;-96
2024/01/10 11:32:14;;;;;;;16.38;14.98;;;;;;;;;;6132870;29;20563;-95
2024/01/10 11:35:24;;;;;;;14.35;13.00;;;;;;;;;;6139602;28;20182;-94
2024/01/10 11:38:27;;;;;;;14.48;13.20;;;;;;;;;;6141107;28;20050;-94
2024/01/10 11:41:36;;;;;;;20.38;15.65;;;;;;;;;;6133191;29;20078;-94
2024/01/10 11:44:51;;;;;;;18.90;16.48;;;;;;;;;;6132580;29;20606;-94
2024/01/10 11:47:53;;;;;;;15.32;13.90;;;;;;;;;;6142004;29;20130;-94
2024/01/10 11:50:57;;;;;;;15.35;14.13;;;;;;;;;;6135483;28;20075;-94
2024/01/10 11:54:00;;;;;;;15.32;14.05;;;;;;;;;;6151075;28;20401;-94
2024/01/10 11:57:02;;;;;;;17.45;15.88;;;;;;;;;;6135886;28;20418;-95
2024/01/10 12:00:07;;;;;;;16.33;14.82;;;;;;;;;;6128222;28;20058;-94
2024/01/10 12:03:14;;;;;;;16.27;14.90;;;;;;;;;;6151770;28;20448;-94
2024/01/10 12:06:16;;;;;;;16.73;15.48;;;;;;;;;;6136595;28;20070;-94
2024/01/10 12:09:18;;;;;;;19.38;17.63;;;;;;;;;;6138792;28;20035;-94
2024/01/10 12:12:20;;;;;;;14.23;13.13;;;;;;;;;;6140849;28;20066;-95
2024/01/10 12:15:22;;;;;;;15.60;14.35;;;;;;;;;;6138176;28;20050;-94
2024/01/10 12:18:24;;;;;;;14.73;13.63;;;;;;;;;;6140036;28;20516;-95
2024/01/10 12:21:26;;;;;;;17.52;15.88;;;;;;;;;;6126935;28;20123;-94
2024/01/10 12:24:34;;;;;;;14.70;12.18;;;;;;;;;;6140780;28;20047;-94
2024/01/10 12:27:36;;;;;;;20.10;13.30;;;;;;;;;;6129880;28;20578;-94
2024/01/10 12:30:37;;;;;;;15.20;13.43;;;;;;;;;;6136359;28;20047;-94
2024/01/10 12:33:43;;;;;;;20.45;14.95;;;;;;;;;;6139782;28;20489;-94
2024/01/10 12:36:46;;;;;;;19.75;13.98;;;;;;;;;;6149877;28;20055;-94
2024/01/10 12:39:48;;;;;;;14.63;13.32;;;;;;;;;;6137791;28;20075;-93
2024/01/10 12:43:01;;;;;;;15.90;13.23;;;;;;;;;;6129332;29;20103;-94
2024/01/10 12:46:13;;;;;;;13.55;12.32;;;;;;;;;;6140396;28;20047;-94
2024/01/10 12:49:15;;;;;;;16.92;14.57;;;;;;;;;;6144333;28;20036;-94
2024/01/10 12:52:19;;;;;;;20.52;14.38;;;;;;;;;;6139489;28;20051;-94
2024/01/10 12:55:25;;;;;;;15.57;13.90;;;;;;;;;;6140532;28;20390;-94
2024/01/10 12:58:28;;;;;;;13.07;11.80;;;;;;;;;;6138738;29;20446;-94
2024/01/10 13:01:30;;;;;;;14.32;12.95;;;;;;;;;;6141014;28;20134;-94
2024/01/10 13:04:32;;;;;;;15.23;13.38;;;;;;;;;;6122127;29;20457;-94
2024/01/10 13:07:35;;;;;;;28.15;25.10;;;;;;;;;;6136793;28;20494;-94
2024/01/10 13:10:40;;;;;;;13.20;12.05;;;;;;;;;;6147087;28;20122;-94
2024/01/10 13:13:43;;;;;;;28.10;15.07;;;;;;;;;;6142153;28;20421;-94
2024/01/10 13:16:45;;;;;;;17.42;12.23;;;;;;;;;;6142768;28;20039;-94
2024/01/10 13:20:00;;;;;;;13.38;12.07;;;;;;;;;;6155797;28;20054;-95
2024/01/10 13:23:02;;;;;;;14.32;12.95;;;;;;;;;;6131195;29;20406;-94
2024/01/10 13:26:04;;;;;;;13.13;11.70;;;;;;;;;;6140368;28;20047;-94
2024/01/10 13:29:07;;;;;;;12.75;11.43;;;;;;;;;;6143721;28;20078;-94
2024/01/10 13:32:10;;;;;;;17.50;13.40;;;;;;;;;;6140720;28;20058;-94
2024/01/10 13:35:16;;;;;;;14.13;12.90;;;;;;;;;;6143228;28;20050;-95
2024/01/10 13:38:18;;;;;;;14.68;11.73;;;;;;;;;;6112653;29;20417;-94
2024/01/10 13:41:20;;;;;;;14.23;11.88;;;;;;;;;;6133189;29;20043;-95
2024/01/10 13:44:23;;;;;;;13.43;11.95;;;;;;;;;;6141697;28;20089;-94
2024/01/10 13:47:25;;;;;;;20.30;12.98;;;;;;;;;;6140480;28;20532;-95
2024/01/10 13:50:28;;;;;;;13.68;12.18;;;;;;;;;;6138555;28;20089;-95
2024/01/10 13:53:30;;;;;;;12.68;11.52;;;;;;;;;;6143797;28;20486;-95
2024/01/10 13:56:34;;;;;;;14.98;13.32;;;;;;;;;;6130888;28;20044;-96
2024/01/10 13:59:36;;;;;;;15.50;13.93;;;;;;;;;;6125634;29;20110;-95
2024/01/10 14:02:38;;;;;;;12.43;11.20;;;;;;;;;;6142441;28;20197;-96
2024/01/10 14:05:40;;;;;;;25.63;14.40;;;;;;;;;;6145872;28;20047;-95
2024/01/10 14:08:43;;;;;;;15.15;13.73;;;;;;;;;;6139902;28;20050;-95
2024/01/10 14:11:45;;;;;;;16.65;12.32;;;;;;;;;;6139300;29;20461;-95
2024/01/10 14:14:47;;;;;;;14.77;13.13;;;;;;;;;;6141387;28;20051;-95
2024/01/10 14:17:49;;;;;;;11.65;10.70;;;;;;;;;;6136678;29;20092;-94
2024/01/10 14:20:50;;;;;;;15.43;14.05;;;;;;;;;;6150185;28;20039;-95
2024/01/10 14:23:52;;;;;;;17.27;13.32;;;;;;;;;;6155681;28;20531;-94
2024/01/10 14:26:54;;;;;;;11.30;10.32;;;;;;;;;;6142050;28;20047;-94
2024/01/10 14:29:56;;;;;;;17.45;11.60;;;;;;;;;;6139227;28;20130;-94
2024/01/10 14:32:59;;;;;;;10.30;9.40;;;;;;;;;;6140192;28;20052;-94
2024/01/10 14:36:02;;;;;;;11.00;10.05;;;;;;;;;;6139525;28;20130;-95
2024/01/10 14:39:07;;;;;;;14.45;12.98;;;;;;;;;;6142258;28;20607;-94
2024/01/10 14:42:09;;;;;;;26.33;12.63;;;;;;;;;;6138207;28;20047;-94
2024/01/10 14:45:11;;;;;;;19.23;14.45;;;;;;;;;;6138557;29;20409;-95
2024/01/10 14:48:13;;;;;;;12.02;11.10;;;;;;;;;;6161007;28;20047;-95
2024/01/10 14:51:20;;;;;;;13.55;12.45;;;;;;;;;;6134381;28;20502;-95
2024/01/10 14:54:22;;;;;;;11.23;10.43;;;;;;;;;;6138441;28;20054;-91
2024/01/10 14:57:24;;;;;;;13.27;10.77;;;;;;;;;;6138488;28;20047;-94
2024/01/10 15:00:26;;;;;;;12.70;11.45;;;;;;;;;;6137469;28;20133;-95
2024/01/10 15:03:28;;;;;;;19.70;15.00;;;;;;;;;;6137651;28;20055;-95
2024/01/10 15:06:30;;;;;;;17.92;13.05;;;;;;;;;;6148478;28;20661;-96
2024/01/10 15:09:32;;;;;;;13.70;12.32;;;;;;;;;;6126080;29;20054;-96
2024/01/10 15:12:34;;;;;;;12.77;11.75;;;;;;;;;;6138279;28;20050;-95
2024/01/10 15:15:43;;;;;;;15.10;13.70;;;;;;;;;;6155304;28;20142;-95
2024/01/10 15:18:45;;;;;;;15.57;12.50;;;;;;;;;;6132340;28;20095;-95
2024/01/10 15:21:47;;;;;;;14.50;13.13;;;;;;;;;;6131911;29;20040;-95
2024/01/10 15:24:49;;;;;;;14.48;12.55;;;;;;;;;;6137475;28;20512;-95
2024/01/10 15:27:51;;;;;;;17.15;13.88;;;;;;;;;;6134810;28;20043;-96
2024/01/10 15:30:53;;;;;;;17.92;13.23;;;;;;;;;;6155949;28;20552;-96
2024/01/10 15:33:55;;;;;;;14.07;12.95;;;;;;;;;;6118448;28;20186;-95
2024/01/10 15:36:58;;;;;;;18.05;12.85;;;;;;;;;;6138734;28;20487;-96
2024/01/10 15:40:00;;;;;;;16.65;13.88;;;;;;;;;;6138718;28;20043;-96
2024/01/10 15:43:02;;;;;;;12.50;11.50;;;;;;;;;;6138573;29;20043;-96
2024/01/10 15:46:04;;;;;;;15.80;14.52;;;;;;;;;;6143626;28;20099;-96
2024/01/10 15:49:07;;;;;;;15.38;13.48;;;;;;;;;;6138682;28;20051;-95
2024/01/10 15:52:09;;;;;;;14.43;12.88;;;;;;;;;;6140675;28;20410;-96
2024/01/10 15:55:11;;;;;;;17.50;15.38;;;;;;;;;;6140759;28;20133;-96
2024/01/10 15:58:15;;;;;;;16.35;13.10;;;;;;;;;;6150825;28;20043;-96
2024/01/10 16:01:17;;;;;;;16.48;13.60;;;;;;;;;;6145898;28;20197;-96
2024/01/10 16:04:19;;;;;;;18.50;12.32;;;;;;;;;;6145151;28;20405;-96
2024/01/10 16:07:24;;;;;;;25.80;14.88;;;;;;;;;;6144712;28;20524;-96
2024/01/10 16:10:26;;;;;;;16.15;12.93;;;;;;;;;;6134675;28;20051;-96
2024/01/10 16:13:31;;;;;;;14.95;13.77;;;;;;;;;;6154572;28;20050;-95
2024/01/10 16:16:35;;;;;;;14.57;13.27;;;;;;;;;;6137874;29;20456;-96
2024/01/10 16:19:37;;;;;;;14.85;13.75;;;;;;;;;;6147913;28;20054;-96
2024/01/10 16:22:39;;;;;;;13.38;12.15;;;;;;;;;;6150678;28;20423;-96
2024/01/10 16:25:42;;;;;;;14.52;13.48;;;;;;;;;;6131433;28;20043;-96
2024/01/10 16:28:56;;;;;;;14.90;13.35;;;;;;;;;;6182141;28;20043;-96
2024/01/10 16:32:03;;;;;;;15.07;12.90;;;;;;;;;;6180776;28;20051;-96
2024/01/10 16:35:22;;;;;;;13.68;12.45;;;;;;;;;;6168057;28;20067;-96
2024/01/10 16:38:29;;;;;;;12.52;11.52;;;;;;;;;;6175954;29;20143;-96
2024/01/10 16:41:34;;;;;;;17.02;15.45;;;;;;;;;;6178359;29;20023;-96
2024/01/10 16:44:41;;;;;;;15.38;13.43;;;;;;;;;;6194666;28;20111;-96
2024/01/10 16:47:55;;;;;;;13.82;12.57;;;;;;;;;;6164340;29;20034;-97
2024/01/10 16:51:09;;;;;;;18.33;13.55;;;;;;;;;;6179786;28;20026;-96
2024/01/10 16:54:21;;;;;;;17.10;15.43;;;;;;;;;;6179396;28;20039;-96
2024/01/10 16:57:33;;;;;;;14.20;13.00;;;;;;;;;;6181941;28;20051;-96
2024/01/10 17:00:44;;;;;;;17.95;15.65;;;;;;;;;;6178481;28;20051;-96
2024/01/10 17:03:51;;;;;;;16.35;14.80;;;;;;;;;;6178984;28;20051;-96
2024/01/10 17:07:06;;;;;;;12.40;11.70;;;;;;;;;;6177730;28;20031;-96
2024/01/10 17:10:37;;;;;;;14.40;13.27;;;;;;;;;;6179758;28;20086;-96
2024/01/10 17:14:09;;;;;;;16.98;12.38;;;;;;;;;;6169256;29;20047;-96
2024/01/10 17:17:25;;;;;;;16.20;14.85;;;;;;;;;;6182758;28;20059;-95
2024/01/10 17:20:58;;;;;;;14.57;12.77;;;;;;;;;;6169971;28;20043;-96
2024/01/10 17:24:12;;;;;;;16.35;13.90;;;;;;;;;;6183262;28;20039;-96
2024/01/10 17:27:19;;;;;;;15.82;12.48;;;;;;;;;;6182449;28;20051;-96
2024/01/10 17:30:29;;;;;;;15.40;13.98;;;;;;;;;;6247598;23;20051;-96
2024/01/10 17:33:36;;;;;;;17.25;11.98;;;;;;;;;;6183692;28;20039;-96
2024/01/10 17:36:41;;;;;;;14.43;13.05;;;;;;;;;;6183043;28;20055;-96
2024/01/10 17:39:45;;;;;;;14.15;13.10;;;;;;;;;;6203996;23;20075;-96
2024/01/10 17:42:49;;;;;;;13.63;12.25;;;;;;;;;;6889464;23;20034;-96
2024/01/10 17:46:02;;;;;;;21.80;13.43;;;;;;;;;;6198923;28;20038;-97
2024/01/10 17:49:10;;;;;;;12.63;11.70;;;;;;;;;;6178945;28;20316;-97
2024/01/10 17:52:19;;;;;;;14.50;13.07;;;;;;;;;;6182521;28;20047;-95